sensor_id;sensor_type;location;lat;lon;timestamp;temperature;humidity
19898;DHT22;10111;50.814;4.572;2023-04-03T00:01:13;5.60;99.90
19898;DHT22;10111;50.814;4.572;2023-04-03T00:03:39;5.60;99.90
19898;DHT22;10111;50.814;4.572;2023-04-03T00:06:07;5.60;99.90
19898;DHT22;10111;50.814;4.572;2023-04-03T00:08:34;5.60;99.90
19898;DHT22;10111;50.814;4.572;2023-04-03T00:11:01;5.80;99.90
19898;DHT22;10111;50.814;4.572;2023-04-03T00:13:26;5.70;99.90
19898;DHT22;10111;50.814;4.572;2023-04-03T00:15:52;5.30;99.90
19898;DHT22;10111;50.814;4.572;2023-04-03T00:18:18;5.20;99.90
19898;DHT22;10111;50.814;4.572;2023-04-03T00:20:44;5.10;99.90
19898;DHT22;10111;50.814;4.572;2023-04-03T00:23:09;5.00;99.90
19898;DHT22;10111;50.814;4.572;2023-04-03T00:25:35;5.00;99.90
19898;DHT22;10111;50.814;4.572;2023-04-03T00:28:02;5.00;99.90
19898;DHT22;10111;50.814;4.572;2023-04-03T00:30:28;4.80;99.90
19898;DHT22;10111;50.814;4.572;2023-04-03T00:32:54;4.80;99.90
19898;DHT22;10111;50.814;4.572;2023-04-03T00:35:21;4.90;99.90
19898;DHT22;10111;50.814;4.572;2023-04-03T00:37:47;4.90;99.90
19898;DHT22;10111;50.814;4.572;2023-04-03T00:40:14;4.70;99.90
19898;DHT22;10111;50.814;4.572;2023-04-03T00:42:42;4.70;99.90
19898;DHT22;10111;50.814;4.572;2023-04-03T00:47:38;4.50;99.90
19898;DHT22;10111;50.814;4.572;2023-04-03T00:50:05;4.40;99.90
19898;DHT22;10111;50.814;4.572;2023-04-03T00:52:31;4.30;99.90
19898;DHT22;10111;50.814;4.572;2023-04-03T00:55:00;4.60;99.90
19898;DHT22;10111;50.814;4.572;2023-04-03T00:57:28;4.80;99.90
19898;DHT22;10111;50.814;4.572;2023-04-03T00:59:59;4.90;99.90
19898;DHT22;10111;50.814;4.572;2023-04-03T01:02:27;4.90;99.90
19898;DHT22;10111;50.814;4.572;2023-04-03T01:04:52;4.80;99.90
19898;DHT22;10111;50.814;4.572;2023-04-03T01:07:22;4.60;99.90
19898;DHT22;10111;50.814;4.572;2023-04-03T01:09:52;4.70;99.90
19898;DHT22;10111;50.814;4.572;2023-04-03T01:12:30;4.80;99.90
19898;DHT22;10111;50.814;4.572;2023-04-03T01:15:02;4.80;99.90
19898;DHT22;10111;50.814;4.572;2023-04-03T01:17:33;4.50;99.90
19898;DHT22;10111;50.814;4.572;2023-04-03T01:25:49;4.10;99.90
19898;DHT22;10111;50.814;4.572;2023-04-03T01:28:24;3.90;99.90
19898;DHT22;10111;50.814;4.572;2023-04-03T01:31:00;3.80;99.90
19898;DHT22;10111;50.814;4.572;2023-04-03T01:33:28;3.80;99.90
19898;DHT22;10111;50.814;4.572;2023-04-03T01:35:54;3.70;99.90
19898;DHT22;10111;50.814;4.572;2023-04-03T01:38:19;3.70;99.90
19898;DHT22;10111;50.814;4.572;2023-04-03T01:40:46;3.60;99.90
19898;DHT22;10111;50.814;4.572;2023-04-03T01:43:11;3.60;99.90
19898;DHT22;10111;50.814;4.572;2023-04-03T01:45:37;3.50;99.90
19898;DHT22;10111;50.814;4.572;2023-04-03T01:48:03;3.50;99.90
19898;DHT22;10111;50.814;4.572;2023-04-03T01:50:29;3.70;99.90
19898;DHT22;10111;50.814;4.572;2023-04-03T01:52:54;3.70;99.90
19898;DHT22;10111;50.814;4.572;2023-04-03T01:55:20;3.80;99.90
19898;DHT22;10111;50.814;4.572;2023-04-03T01:57:46;3.70;99.90
19898;DHT22;10111;50.814;4.572;2023-04-03T02:00:12;3.80;99.90
19898;DHT22;10111;50.814;4.572;2023-04-03T02:02:38;3.50;99.90
19898;DHT22;10111;50.814;4.572;2023-04-03T02:05:04;3.60;99.90
19898;DHT22;10111;50.814;4.572;2023-04-03T02:07:30;3.60;99.90
19898;DHT22;10111;50.814;4.572;2023-04-03T02:09:55;3.50;99.90
19898;DHT22;10111;50.814;4.572;2023-04-03T02:12:21;3.50;99.90
19898;DHT22;10111;50.814;4.572;2023-04-03T02:14:46;3.30;99.90
19898;DHT22;10111;50.814;4.572;2023-04-03T02:17:12;3.30;99.90
19898;DHT22;10111;50.814;4.572;2023-04-03T02:19:38;3.30;99.90
19898;DHT22;10111;50.814;4.572;2023-04-03T02:22:04;3.20;99.90
19898;DHT22;10111;50.814;4.572;2023-04-03T02:24:30;3.20;99.90
19898;DHT22;10111;50.814;4.572;2023-04-03T02:26:56;3.10;99.90
19898;DHT22;10111;50.814;4.572;2023-04-03T02:29:21;3.10;99.90
19898;DHT22;10111;50.814;4.572;2023-04-03T02:31:47;3.10;99.90
19898;DHT22;10111;50.814;4.572;2023-04-03T02:34:13;3.00;99.90
19898;DHT22;10111;50.814;4.572;2023-04-03T02:36:38;2.90;99.90
19898;DHT22;10111;50.814;4.572;2023-04-03T02:39:04;2.90;99.90
19898;DHT22;10111;50.814;4.572;2023-04-03T02:41:30;2.90;99.90
19898;DHT22;10111;50.814;4.572;2023-04-03T02:44:03;2.90;99.90
19898;DHT22;10111;50.814;4.572;2023-04-03T02:46:29;2.80;99.90
19898;DHT22;10111;50.814;4.572;2023-04-03T02:48:55;2.80;99.90
19898;DHT22;10111;50.814;4.572;2023-04-03T02:51:21;2.70;99.90
19898;DHT22;10111;50.814;4.572;2023-04-03T02:53:48;2.70;99.90
19898;DHT22;10111;50.814;4.572;2023-04-03T02:56:14;2.70;99.90
19898;DHT22;10111;50.814;4.572;2023-04-03T02:58:40;2.50;99.90
19898;DHT22;10111;50.814;4.572;2023-04-03T03:01:05;2.40;99.90
19898;DHT22;10111;50.814;4.572;2023-04-03T03:03:31;2.40;99.90
19898;DHT22;10111;50.814;4.572;2023-04-03T03:06:11;2.40;99.90
19898;DHT22;10111;50.814;4.572;2023-04-03T03:08:37;2.30;99.90
19898;DHT22;10111;50.814;4.572;2023-04-03T03:11:03;2.30;99.90
19898;DHT22;10111;50.814;4.572;2023-04-03T03:13:30;2.40;99.90
19898;DHT22;10111;50.814;4.572;2023-04-03T03:15:56;2.20;99.90
19898;DHT22;10111;50.814;4.572;2023-04-03T03:18:22;2.20;99.90
19898;DHT22;10111;50.814;4.572;2023-04-03T03:20:52;2.10;99.90
19898;DHT22;10111;50.814;4.572;2023-04-03T03:23:18;2.10;99.90
19898;DHT22;10111;50.814;4.572;2023-04-03T03:25:43;2.30;99.90
19898;DHT22;10111;50.814;4.572;2023-04-03T03:28:09;2.20;99.90
19898;DHT22;10111;50.814;4.572;2023-04-03T03:30:35;2.00;99.90
19898;DHT22;10111;50.814;4.572;2023-04-03T03:33:01;2.00;99.90
19898;DHT22;10111;50.814;4.572;2023-04-03T03:35:26;2.00;99.90
19898;DHT22;10111;50.814;4.572;2023-04-03T03:37:52;2.00;99.90
19898;DHT22;10111;50.814;4.572;2023-04-03T03:40:18;1.90;99.90
19898;DHT22;10111;50.814;4.572;2023-04-03T03:42:43;1.90;99.90
19898;DHT22;10111;50.814;4.572;2023-04-03T03:45:10;1.90;99.90
19898;DHT22;10111;50.814;4.572;2023-04-03T03:47:35;1.90;99.90
19898;DHT22;10111;50.814;4.572;2023-04-03T03:50:02;1.90;99.90
19898;DHT22;10111;50.814;4.572;2023-04-03T03:52:28;1.90;99.90
19898;DHT22;10111;50.814;4.572;2023-04-03T03:54:55;1.80;99.90
19898;DHT22;10111;50.814;4.572;2023-04-03T03:57:21;1.80;99.90
19898;DHT22;10111;50.814;4.572;2023-04-03T03:59:46;1.80;99.90
19898;DHT22;10111;50.814;4.572;2023-04-03T04:02:14;1.70;99.90
19898;DHT22;10111;50.814;4.572;2023-04-03T04:04:40;1.70;99.90
19898;DHT22;10111;50.814;4.572;2023-04-03T04:07:05;1.70;99.90
19898;DHT22;10111;50.814;4.572;2023-04-03T04:09:31;1.70;99.90
19898;DHT22;10111;50.814;4.572;2023-04-03T04:11:57;1.80;99.90
19898;DHT22;10111;50.814;4.572;2023-04-03T04:14:23;1.90;99.90
19898;DHT22;10111;50.814;4.572;2023-04-03T04:16:49;1.80;99.90
19898;DHT22;10111;50.814;4.572;2023-04-03T04:19:15;1.70;99.90
19898;DHT22;10111;50.814;4.572;2023-04-03T04:21:40;1.70;99.90
19898;DHT22;10111;50.814;4.572;2023-04-03T04:24:07;1.80;99.90
19898;DHT22;10111;50.814;4.572;2023-04-03T04:26:33;1.60;99.90
19898;DHT22;10111;50.814;4.572;2023-04-03T04:29:00;1.50;99.90
19898;DHT22;10111;50.814;4.572;2023-04-03T04:31:26;1.50;99.90
19898;DHT22;10111;50.814;4.572;2023-04-03T04:33:52;1.40;99.90
19898;DHT22;10111;50.814;4.572;2023-04-03T04:36:18;1.50;99.90
19898;DHT22;10111;50.814;4.572;2023-04-03T04:38:44;1.40;99.90
19898;DHT22;10111;50.814;4.572;2023-04-03T04:41:10;1.40;99.90
19898;DHT22;10111;50.814;4.572;2023-04-03T04:43:35;1.50;99.90
19898;DHT22;10111;50.814;4.572;2023-04-03T04:46:06;1.50;99.90
19898;DHT22;10111;50.814;4.572;2023-04-03T04:48:33;1.50;99.90
19898;DHT22;10111;50.814;4.572;2023-04-03T04:50:58;1.40;99.90
19898;DHT22;10111;50.814;4.572;2023-04-03T04:53:24;1.50;99.90
19898;DHT22;10111;50.814;4.572;2023-04-03T04:55:50;1.50;99.90
19898;DHT22;10111;50.814;4.572;2023-04-03T04:58:15;1.60;99.90
19898;DHT22;10111;50.814;4.572;2023-04-03T05:00:41;1.50;99.90
19898;DHT22;10111;50.814;4.572;2023-04-03T05:03:07;1.50;99.90
19898;DHT22;10111;50.814;4.572;2023-04-03T05:05:33;1.40;99.90
19898;DHT22;10111;50.814;4.572;2023-04-03T05:07:59;1.40;99.90
19898;DHT22;10111;50.814;4.572;2023-04-03T05:10:25;1.40;99.90
19898;DHT22;10111;50.814;4.572;2023-04-03T05:12:50;1.40;99.90
19898;DHT22;10111;50.814;4.572;2023-04-03T05:15:16;1.50;99.90
19898;DHT22;10111;50.814;4.572;2023-04-03T05:17:42;1.60;99.90
19898;DHT22;10111;50.814;4.572;2023-04-03T05:20:07;1.80;99.90
19898;DHT22;10111;50.814;4.572;2023-04-03T05:22:34;1.80;99.90
19898;DHT22;10111;50.814;4.572;2023-04-03T05:24:59;1.80;99.90
19898;DHT22;10111;50.814;4.572;2023-04-03T05:27:25;1.80;99.90
19898;DHT22;10111;50.814;4.572;2023-04-03T05:29:53;1.80;99.90
19898;DHT22;10111;50.814;4.572;2023-04-03T05:32:19;1.80;99.90
19898;DHT22;10111;50.814;4.572;2023-04-03T05:34:45;1.70;99.90
19898;DHT22;10111;50.814;4.572;2023-04-03T05:37:11;1.80;99.90
19898;DHT22;10111;50.814;4.572;2023-04-03T05:39:37;1.90;99.90
19898;DHT22;10111;50.814;4.572;2023-04-03T05:42:06;1.90;99.90
19898;DHT22;10111;50.814;4.572;2023-04-03T05:44:31;1.90;99.90
19898;DHT22;10111;50.814;4.572;2023-04-03T05:46:57;1.90;99.90
19898;DHT22;10111;50.814;4.572;2023-04-03T05:49:23;1.90;99.90
19898;DHT22;10111;50.814;4.572;2023-04-03T05:51:49;1.90;99.90
19898;DHT22;10111;50.814;4.572;2023-04-03T05:54:21;2.10;99.90
19898;DHT22;10111;50.814;4.572;2023-04-03T05:56:49;2.00;99.90
19898;DHT22;10111;50.814;4.572;2023-04-03T05:59:15;2.00;99.90
19898;DHT22;10111;50.814;4.572;2023-04-03T06:01:41;2.20;99.90
19898;DHT22;10111;50.814;4.572;2023-04-03T06:04:07;2.30;99.90
19898;DHT22;10111;50.814;4.572;2023-04-03T06:09:09;2.60;99.90
19898;DHT22;10111;50.814;4.572;2023-04-03T06:11:34;2.80;99.90
19898;DHT22;10111;50.814;4.572;2023-04-03T06:14:01;3.00;99.90
19898;DHT22;10111;50.814;4.572;2023-04-03T06:16:26;3.10;99.90
19898;DHT22;10111;50.814;4.572;2023-04-03T06:18:52;3.30;99.90
19898;DHT22;10111;50.814;4.572;2023-04-03T06:21:18;3.50;99.90
19898;DHT22;10111;50.814;4.572;2023-04-03T06:23:43;3.60;99.90
19898;DHT22;10111;50.814;4.572;2023-04-03T06:26:09;3.60;99.90
19898;DHT22;10111;50.814;4.572;2023-04-03T06:28:35;3.80;99.90
19898;DHT22;10111;50.814;4.572;2023-04-03T06:31:01;3.90;99.90
19898;DHT22;10111;50.814;4.572;2023-04-03T06:33:26;4.20;99.90
19898;DHT22;10111;50.814;4.572;2023-04-03T06:35:58;4.40;99.90
19898;DHT22;10111;50.814;4.572;2023-04-03T06:38:24;4.60;99.90
19898;DHT22;10111;50.814;4.572;2023-04-03T06:40:50;4.60;99.90
19898;DHT22;10111;50.814;4.572;2023-04-03T06:43:17;4.70;99.90
19898;DHT22;10111;50.814;4.572;2023-04-03T06:45:42;4.80;99.90
19898;DHT22;10111;50.814;4.572;2023-04-03T06:48:08;4.80;99.90
19898;DHT22;10111;50.814;4.572;2023-04-03T06:50:34;4.90;99.90
19898;DHT22;10111;50.814;4.572;2023-04-03T06:53:00;4.90;99.90
19898;DHT22;10111;50.814;4.572;2023-04-03T06:55:26;5.10;99.90
19898;DHT22;10111;50.814;4.572;2023-04-03T06:57:52;5.40;99.90
19898;DHT22;10111;50.814;4.572;2023-04-03T07:00:18;5.60;99.90
19898;DHT22;10111;50.814;4.572;2023-04-03T07:02:44;5.60;99.90
19898;DHT22;10111;50.814;4.572;2023-04-03T07:05:09;5.70;99.90
19898;DHT22;10111;50.814;4.572;2023-04-03T07:07:35;5.60;99.90
19898;DHT22;10111;50.814;4.572;2023-04-03T07:10:01;5.40;99.90
19898;DHT22;10111;50.814;4.572;2023-04-03T07:12:27;5.30;99.90
19898;DHT22;10111;50.814;4.572;2023-04-03T07:14:52;5.40;99.90
19898;DHT22;10111;50.814;4.572;2023-04-03T07:17:18;5.50;99.90
19898;DHT22;10111;50.814;4.572;2023-04-03T07:19:44;5.60;99.90
19898;DHT22;10111;50.814;4.572;2023-04-03T07:22:10;5.70;99.90
19898;DHT22;10111;50.814;4.572;2023-04-03T07:24:36;5.80;99.90
19898;DHT22;10111;50.814;4.572;2023-04-03T07:27:02;5.80;99.90
19898;DHT22;10111;50.814;4.572;2023-04-03T07:29:29;5.80;99.90
19898;DHT22;10111;50.814;4.572;2023-04-03T07:31:55;6.00;99.90
19898;DHT22;10111;50.814;4.572;2023-04-03T07:34:21;6.10;99.90
19898;DHT22;10111;50.814;4.572;2023-04-03T07:36:47;6.00;99.90
19898;DHT22;10111;50.814;4.572;2023-04-03T07:39:13;6.10;99.90
19898;DHT22;10111;50.814;4.572;2023-04-03T07:41:38;6.20;99.90
19898;DHT22;10111;50.814;4.572;2023-04-03T07:44:05;6.20;99.90
19898;DHT22;10111;50.814;4.572;2023-04-03T07:46:31;6.20;99.90
19898;DHT22;10111;50.814;4.572;2023-04-03T07:48:57;6.40;99.90
19898;DHT22;10111;50.814;4.572;2023-04-03T07:51:23;6.50;99.90
19898;DHT22;10111;50.814;4.572;2023-04-03T07:53:50;6.80;99.90
19898;DHT22;10111;50.814;4.572;2023-04-03T07:56:16;7.00;99.90
19898;DHT22;10111;50.814;4.572;2023-04-03T07:58:42;7.00;99.90
19898;DHT22;10111;50.814;4.572;2023-04-03T08:01:08;7.00;99.90
19898;DHT22;10111;50.814;4.572;2023-04-03T08:03:33;7.10;99.90
19898;DHT22;10111;50.814;4.572;2023-04-03T08:06:05;7.20;99.90
19898;DHT22;10111;50.814;4.572;2023-04-03T08:08:30;7.20;99.90
19898;DHT22;10111;50.814;4.572;2023-04-03T08:10:59;7.20;99.90
19898;DHT22;10111;50.814;4.572;2023-04-03T08:13:26;7.40;99.90
19898;DHT22;10111;50.814;4.572;2023-04-03T08:15:52;7.30;99.90
19898;DHT22;10111;50.814;4.572;2023-04-03T08:18:18;7.50;99.90
19898;DHT22;10111;50.814;4.572;2023-04-03T08:20:46;7.60;99.90
19898;DHT22;10111;50.814;4.572;2023-04-03T08:23:12;7.80;99.90
19898;DHT22;10111;50.814;4.572;2023-04-03T08:25:42;8.00;99.90
19898;DHT22;10111;50.814;4.572;2023-04-03T08:28:09;7.90;99.90
19898;DHT22;10111;50.814;4.572;2023-04-03T08:30:38;7.90;99.90
19898;DHT22;10111;50.814;4.572;2023-04-03T08:33:04;8.00;99.90
19898;DHT22;10111;50.814;4.572;2023-04-03T08:35:30;7.90;99.90
19898;DHT22;10111;50.814;4.572;2023-04-03T08:37:55;8.10;99.90
19898;DHT22;10111;50.814;4.572;2023-04-03T08:40:22;8.50;99.90
19898;DHT22;10111;50.814;4.572;2023-04-03T08:48:15;8.80;99.90
19898;DHT22;10111;50.814;4.572;2023-04-03T08:50:50;8.80;99.90
19898;DHT22;10111;50.814;4.572;2023-04-03T08:53:28;8.80;99.90
19898;DHT22;10111;50.814;4.572;2023-04-03T08:55:56;8.70;99.90
19898;DHT22;10111;50.814;4.572;2023-04-03T08:58:28;8.80;99.90
19898;DHT22;10111;50.814;4.572;2023-04-03T09:01:19;8.80;99.90
19898;DHT22;10111;50.814;4.572;2023-04-03T09:03:45;9.10;99.90
19898;DHT22;10111;50.814;4.572;2023-04-03T09:16:53;9.80;99.90
19898;DHT22;10111;50.814;4.572;2023-04-03T09:19:54;9.80;99.90
19898;DHT22;10111;50.814;4.572;2023-04-03T09:22:28;9.80;99.90
19898;DHT22;10111;50.814;4.572;2023-04-03T09:25:15;9.90;99.90
19898;DHT22;10111;50.814;4.572;2023-04-03T09:27:42;9.80;99.90
19898;DHT22;10111;50.814;4.572;2023-04-03T09:30:34;9.70;99.90
19898;DHT22;10111;50.814;4.572;2023-04-03T09:32:59;9.90;99.90
19898;DHT22;10111;50.814;4.572;2023-04-03T09:35:28;10.30;99.90
19898;DHT22;10111;50.814;4.572;2023-04-03T09:42:54;9.80;99.90
19898;DHT22;10111;50.814;4.572;2023-04-03T09:45:30;9.70;99.90
19898;DHT22;10111;50.814;4.572;2023-04-03T09:48:17;10.00;99.90
19898;DHT22;10111;50.814;4.572;2023-04-03T09:51:02;9.90;99.90
19898;DHT22;10111;50.814;4.572;2023-04-03T09:53:38;9.80;99.90
19898;DHT22;10111;50.814;4.572;2023-04-03T09:56:19;9.90;99.90
19898;DHT22;10111;50.814;4.572;2023-04-03T10:01:28;9.80;99.90
19898;DHT22;10111;50.814;4.572;2023-04-03T10:04:11;9.90;99.90
19898;DHT22;10111;50.814;4.572;2023-04-03T10:06:59;9.80;99.90
19898;DHT22;10111;50.814;4.572;2023-04-03T10:09:33;9.60;99.90
19898;DHT22;10111;50.814;4.572;2023-04-03T10:12:09;9.50;99.90
19898;DHT22;10111;50.814;4.572;2023-04-03T10:14:59;9.50;99.90
19898;DHT22;10111;50.814;4.572;2023-04-03T10:25:15;9.50;99.90
19898;DHT22;10111;50.814;4.572;2023-04-03T10:28:06;9.40;99.90
19898;DHT22;10111;50.814;4.572;2023-04-03T10:31:09;9.30;99.90
19898;DHT22;10111;50.814;4.572;2023-04-03T10:39:28;9.30;99.90
19898;DHT22;10111;50.814;4.572;2023-04-03T10:48:24;9.10;99.90
19898;DHT22;10111;50.814;4.572;2023-04-03T10:53:52;9.30;99.90
19898;DHT22;10111;50.814;4.572;2023-04-03T10:56:47;9.20;99.90
19898;DHT22;10111;50.814;4.572;2023-04-03T11:00:21;9.30;99.90
19898;DHT22;10111;50.814;4.572;2023-04-03T11:05:02;9.30;99.90
19898;DHT22;10111;50.814;4.572;2023-04-03T11:07:33;9.30;99.90
19898;DHT22;10111;50.814;4.572;2023-04-03T11:10:10;9.20;99.90
19898;DHT22;10111;50.814;4.572;2023-04-03T11:12:47;9.30;99.90
19898;DHT22;10111;50.814;4.572;2023-04-03T11:15:16;9.50;99.90
19898;DHT22;10111;50.814;4.572;2023-04-03T11:17:55;9.50;99.90
19898;DHT22;10111;50.814;4.572;2023-04-03T11:20:31;9.40;99.90
19898;DHT22;10111;50.814;4.572;2023-04-03T11:25:36;9.70;99.90
19898;DHT22;10111;50.814;4.572;2023-04-03T11:28:06;9.40;99.90
19898;DHT22;10111;50.814;4.572;2023-04-03T11:30:52;9.30;99.90
19898;DHT22;10111;50.814;4.572;2023-04-03T11:34:05;9.40;99.90
19898;DHT22;10111;50.814;4.572;2023-04-03T11:36:49;9.50;99.90
19898;DHT22;10111;50.814;4.572;2023-04-03T11:39:37;9.40;99.90
19898;DHT22;10111;50.814;4.572;2023-04-03T11:44:41;9.60;99.90
19898;DHT22;10111;50.814;4.572;2023-04-03T11:47:09;9.60;99.90
19898;DHT22;10111;50.814;4.572;2023-04-03T11:49:55;9.60;99.90
19898;DHT22;10111;50.814;4.572;2023-04-03T11:52:57;9.60;99.90
19898;DHT22;10111;50.814;4.572;2023-04-03T12:13:40;9.90;99.90
19898;DHT22;10111;50.814;4.572;2023-04-03T12:16:29;9.80;99.90
19898;DHT22;10111;50.814;4.572;2023-04-03T12:24:32;10.00;99.90
19898;DHT22;10111;50.814;4.572;2023-04-03T12:51:15;9.90;99.90
19898;DHT22;10111;50.814;4.572;2023-04-03T12:53:43;9.70;99.90
19898;DHT22;10111;50.814;4.572;2023-04-03T12:56:28;9.90;99.90
19898;DHT22;10111;50.814;4.572;2023-04-03T12:58:57;10.10;99.90
19898;DHT22;10111;50.814;4.572;2023-04-03T13:01:37;9.90;99.90
19898;DHT22;10111;50.814;4.572;2023-04-03T13:04:03;9.80;99.90
19898;DHT22;10111;50.814;4.572;2023-04-03T13:06:41;9.80;99.90
19898;DHT22;10111;50.814;4.572;2023-04-03T13:11:47;9.90;99.90
19898;DHT22;10111;50.814;4.572;2023-04-03T13:14:19;10.00;99.90
19898;DHT22;10111;50.814;4.572;2023-04-03T13:17:10;10.10;99.90
19898;DHT22;10111;50.814;4.572;2023-04-03T13:19:38;10.10;99.90
19898;DHT22;10111;50.814;4.572;2023-04-03T13:22:19;10.10;99.90
19898;DHT22;10111;50.814;4.572;2023-04-03T13:24:49;10.10;99.90
19898;DHT22;10111;50.814;4.572;2023-04-03T13:27:16;10.00;99.90
19898;DHT22;10111;50.814;4.572;2023-04-03T13:29:42;9.90;99.90
19898;DHT22;10111;50.814;4.572;2023-04-03T13:32:18;10.00;99.90
19898;DHT22;10111;50.814;4.572;2023-04-03T13:34:44;10.00;99.90
19898;DHT22;10111;50.814;4.572;2023-04-03T13:40:00;10.30;99.90
19898;DHT22;10111;50.814;4.572;2023-04-03T13:42:30;10.30;99.90
19898;DHT22;10111;50.814;4.572;2023-04-03T13:45:25;10.10;99.90
19898;DHT22;10111;50.814;4.572;2023-04-03T13:48:09;10.40;99.90
19898;DHT22;10111;50.814;4.572;2023-04-03T13:50:53;10.60;99.90
19898;DHT22;10111;50.814;4.572;2023-04-03T13:53:20;10.50;99.90
19898;DHT22;10111;50.814;4.572;2023-04-03T13:56:05;10.20;99.90
19898;DHT22;10111;50.814;4.572;2023-04-03T13:58:32;10.20;99.90
19898;DHT22;10111;50.814;4.572;2023-04-03T14:01:10;10.20;99.90
19898;DHT22;10111;50.814;4.572;2023-04-03T14:03:57;10.20;99.90
19898;DHT22;10111;50.814;4.572;2023-04-03T14:06:24;10.40;99.90
19898;DHT22;10111;50.814;4.572;2023-04-03T14:08:50;10.30;99.90
19898;DHT22;10111;50.814;4.572;2023-04-03T14:11:28;10.30;99.90
19898;DHT22;10111;50.814;4.572;2023-04-03T14:13:56;10.30;99.90
19898;DHT22;10111;50.814;4.572;2023-04-03T14:16:27;10.40;99.90
19898;DHT22;10111;50.814;4.572;2023-04-03T14:18:54;10.30;99.90
19898;DHT22;10111;50.814;4.572;2023-04-03T14:21:21;10.40;99.90
19898;DHT22;10111;50.814;4.572;2023-04-03T14:23:47;10.30;99.90
19898;DHT22;10111;50.814;4.572;2023-04-03T14:26:23;10.30;99.90
19898;DHT22;10111;50.814;4.572;2023-04-03T14:28:52;10.20;99.90
19898;DHT22;10111;50.814;4.572;2023-04-03T14:31:19;10.30;99.90
19898;DHT22;10111;50.814;4.572;2023-04-03T14:33:46;10.40;99.90
19898;DHT22;10111;50.814;4.572;2023-04-03T14:36:20;10.50;99.90
19898;DHT22;10111;50.814;4.572;2023-04-03T14:38:47;10.50;99.90
19898;DHT22;10111;50.814;4.572;2023-04-03T14:41:14;10.20;99.90
19898;DHT22;10111;50.814;4.572;2023-04-03T14:43:41;10.10;99.90
19898;DHT22;10111;50.814;4.572;2023-04-03T14:48:42;10.60;99.90
19898;DHT22;10111;50.814;4.572;2023-04-03T14:51:13;10.70;99.90
19898;DHT22;10111;50.814;4.572;2023-04-03T14:53:40;10.70;99.90
19898;DHT22;10111;50.814;4.572;2023-04-03T14:56:28;10.60;99.90
19898;DHT22;10111;50.814;4.572;2023-04-03T14:58:59;10.40;99.90
19898;DHT22;10111;50.814;4.572;2023-04-03T15:01:27;10.40;99.90
19898;DHT22;10111;50.814;4.572;2023-04-03T15:03:53;10.60;99.90
19898;DHT22;10111;50.814;4.572;2023-04-03T15:06:20;10.60;99.90
19898;DHT22;10111;50.814;4.572;2023-04-03T15:08:47;10.80;99.90
19898;DHT22;10111;50.814;4.572;2023-04-03T15:11:13;10.60;99.90
19898;DHT22;10111;50.814;4.572;2023-04-03T15:13:40;10.60;99.90
19898;DHT22;10111;50.814;4.572;2023-04-03T15:16:17;10.50;99.90
19898;DHT22;10111;50.814;4.572;2023-04-03T15:18:44;10.40;99.90
19898;DHT22;10111;50.814;4.572;2023-04-03T15:21:10;10.40;99.90
19898;DHT22;10111;50.814;4.572;2023-04-03T15:23:36;10.40;99.90
19898;DHT22;10111;50.814;4.572;2023-04-03T15:26:02;10.50;99.90
19898;DHT22;10111;50.814;4.572;2023-04-03T15:28:38;10.60;99.90
19898;DHT22;10111;50.814;4.572;2023-04-03T15:31:05;10.70;99.90
19898;DHT22;10111;50.814;4.572;2023-04-03T15:33:34;10.50;99.90
19898;DHT22;10111;50.814;4.572;2023-04-03T15:36:00;10.30;99.90
19898;DHT22;10111;50.814;4.572;2023-04-03T15:38:26;10.10;99.90
19898;DHT22;10111;50.814;4.572;2023-04-03T15:40:53;10.10;99.90
19898;DHT22;10111;50.814;4.572;2023-04-03T15:43:18;10.10;99.90
19898;DHT22;10111;50.814;4.572;2023-04-03T15:45:44;10.10;99.90
19898;DHT22;10111;50.814;4.572;2023-04-03T15:48:11;10.20;99.90
19898;DHT22;10111;50.814;4.572;2023-04-03T15:50:37;10.40;99.90
19898;DHT22;10111;50.814;4.572;2023-04-03T15:53:03;10.80;99.90
19898;DHT22;10111;50.814;4.572;2023-04-03T15:55:31;10.50;99.90
19898;DHT22;10111;50.814;4.572;2023-04-03T15:57:57;10.40;99.90
19898;DHT22;10111;50.814;4.572;2023-04-03T16:00:25;10.50;99.90
19898;DHT22;10111;50.814;4.572;2023-04-03T16:02:56;10.60;99.90
19898;DHT22;10111;50.814;4.572;2023-04-03T16:05:23;10.60;99.90
19898;DHT22;10111;50.814;4.572;2023-04-03T16:07:49;10.60;99.90
19898;DHT22;10111;50.814;4.572;2023-04-03T16:10:17;10.30;99.90
19898;DHT22;10111;50.814;4.572;2023-04-03T16:12:43;10.40;99.90
19898;DHT22;10111;50.814;4.572;2023-04-03T16:15:09;10.40;99.90
19898;DHT22;10111;50.814;4.572;2023-04-03T16:17:35;10.40;99.90
19898;DHT22;10111;50.814;4.572;2023-04-03T16:20:04;10.30;99.90
19898;DHT22;10111;50.814;4.572;2023-04-03T16:22:30;10.10;99.90
19898;DHT22;10111;50.814;4.572;2023-04-03T16:24:56;9.90;99.90
19898;DHT22;10111;50.814;4.572;2023-04-03T16:27:22;9.90;99.90
19898;DHT22;10111;50.814;4.572;2023-04-03T16:29:55;10.00;99.90
19898;DHT22;10111;50.814;4.572;2023-04-03T16:32:22;10.00;99.90
19898;DHT22;10111;50.814;4.572;2023-04-03T16:34:48;10.10;99.90
19898;DHT22;10111;50.814;4.572;2023-04-03T16:37:14;9.90;99.90
19898;DHT22;10111;50.814;4.572;2023-04-03T16:39:40;9.80;99.90
19898;DHT22;10111;50.814;4.572;2023-04-03T16:42:06;9.90;99.90
19898;DHT22;10111;50.814;4.572;2023-04-03T16:44:33;9.80;99.90
19898;DHT22;10111;50.814;4.572;2023-04-03T16:46:59;9.80;99.90
19898;DHT22;10111;50.814;4.572;2023-04-03T16:49:24;9.80;99.90
19898;DHT22;10111;50.814;4.572;2023-04-03T16:51:50;10.20;99.90
19898;DHT22;10111;50.814;4.572;2023-04-03T16:54:16;10.30;99.90
19898;DHT22;10111;50.814;4.572;2023-04-03T16:56:41;10.40;99.90
19898;DHT22;10111;50.814;4.572;2023-04-03T16:59:07;10.50;99.90
19898;DHT22;10111;50.814;4.572;2023-04-03T17:01:33;10.40;99.90
19898;DHT22;10111;50.814;4.572;2023-04-03T17:03:59;10.20;99.90
19898;DHT22;10111;50.814;4.572;2023-04-03T17:06:24;10.10;99.90
19898;DHT22;10111;50.814;4.572;2023-04-03T17:08:51;10.00;99.90
19898;DHT22;10111;50.814;4.572;2023-04-03T17:11:17;10.00;99.90
19898;DHT22;10111;50.814;4.572;2023-04-03T17:13:43;9.80;99.90
19898;DHT22;10111;50.814;4.572;2023-04-03T17:16:12;9.80;99.90
19898;DHT22;10111;50.814;4.572;2023-04-03T17:18:39;9.50;99.90
19898;DHT22;10111;50.814;4.572;2023-04-03T17:21:05;9.50;99.90
19898;DHT22;10111;50.814;4.572;2023-04-03T17:23:34;9.50;99.90
19898;DHT22;10111;50.814;4.572;2023-04-03T17:26:03;9.60;99.90
19898;DHT22;10111;50.814;4.572;2023-04-03T17:28:29;9.80;99.90
19898;DHT22;10111;50.814;4.572;2023-04-03T17:30:57;9.60;99.90
19898;DHT22;10111;50.814;4.572;2023-04-03T17:33:24;9.60;99.90
19898;DHT22;10111;50.814;4.572;2023-04-03T17:35:50;9.40;99.90
19898;DHT22;10111;50.814;4.572;2023-04-03T17:38:16;9.40;99.90
19898;DHT22;10111;50.814;4.572;2023-04-03T17:40:42;9.60;99.90
19898;DHT22;10111;50.814;4.572;2023-04-03T17:43:10;9.50;99.90
19898;DHT22;10111;50.814;4.572;2023-04-03T17:45:36;9.30;99.90
19898;DHT22;10111;50.814;4.572;2023-04-03T17:48:02;9.30;99.90
19898;DHT22;10111;50.814;4.572;2023-04-03T17:50:28;9.10;99.90
19898;DHT22;10111;50.814;4.572;2023-04-03T17:52:54;9.00;99.90
19898;DHT22;10111;50.814;4.572;2023-04-03T17:55:20;9.00;99.90